sensor_id;sensor_type;location;lat;lon;timestamp;P1;durP1;ratioP1;P2;durP2;ratioP2
51020;SDS011;38907;45.562;8.856;2022-09-09T00:03:32;14.85;;;5.53;;
51020;SDS011;38907;45.562;8.856;2022-09-09T00:08:45;10.15;;;6.50;;
51020;SDS011;38907;45.562;8.856;2022-09-09T00:13:56;12.02;;;7.47;;
51020;SDS011;38907;45.562;8.856;2022-09-09T00:19:05;13.63;;;7.68;;
51020;SDS011;38907;45.562;8.856;2022-09-09T00:24:22;17.98;;;8.80;;
51020;SDS011;38907;45.562;8.856;2022-09-09T00:29:28;13.32;;;8.43;;
51020;SDS011;38907;45.562;8.856;2022-09-09T00:34:42;12.38;;;9.30;;
51020;SDS011;38907;45.562;8.856;2022-09-09T00:39:50;13.38;;;8.43;;
51020;SDS011;38907;45.562;8.856;2022-09-09T00:44:58;12.23;;;9.93;;
51020;SDS011;38907;45.562;8.856;2022-09-09T00:50:08;18.88;;;10.13;;
51020;SDS011;38907;45.562;8.856;2022-09-09T00:55:21;15.90;;;10.55;;
51020;SDS011;38907;45.562;8.856;2022-09-09T01:00:34;20.73;;;10.57;;
51020;SDS011;38907;45.562;8.856;2022-09-09T01:05:44;18.25;;;11.52;;
51020;SDS011;38907;45.562;8.856;2022-09-09T01:10:53;17.30;;;10.63;;
51020;SDS011;38907;45.562;8.856;2022-09-09T01:15:58;16.88;;;11.73;;
51020;SDS011;38907;45.562;8.856;2022-09-09T01:21:04;16.80;;;11.00;;
51020;SDS011;38907;45.562;8.856;2022-09-09T01:26:21;14.25;;;10.75;;
51020;SDS011;38907;45.562;8.856;2022-09-09T01:31:28;16.40;;;11.02;;
51020;SDS011;38907;45.562;8.856;2022-09-09T01:36:34;15.07;;;10.05;;
51020;SDS011;38907;45.562;8.856;2022-09-09T01:41:43;14.75;;;9.63;;
51020;SDS011;38907;45.562;8.856;2022-09-09T01:46:46;14.20;;;11.05;;
51020;SDS011;38907;45.562;8.856;2022-09-09T01:51:50;19.90;;;11.80;;
51020;SDS011;38907;45.562;8.856;2022-09-09T01:56:58;17.60;;;11.02;;
51020;SDS011;38907;45.562;8.856;2022-09-09T02:02:09;14.15;;;10.50;;
51020;SDS011;38907;45.562;8.856;2022-09-09T02:12:42;18.02;;;11.80;;
51020;SDS011;38907;45.562;8.856;2022-09-09T02:17:49;15.95;;;11.52;;
51020;SDS011;38907;45.562;8.856;2022-09-09T02:22:53;15.98;;;10.95;;
51020;SDS011;38907;45.562;8.856;2022-09-09T02:27:58;16.70;;;11.55;;
51020;SDS011;38907;45.562;8.856;2022-09-09T02:33:03;20.33;;;12.27;;
51020;SDS011;38907;45.562;8.856;2022-09-09T02:38:09;22.10;;;12.80;;
51020;SDS011;38907;45.562;8.856;2022-09-09T02:43:16;20.08;;;14.05;;
51020;SDS011;38907;45.562;8.856;2022-09-09T02:48:20;20.40;;;13.75;;
51020;SDS011;38907;45.562;8.856;2022-09-09T02:53:33;22.50;;;14.45;;
51020;SDS011;38907;45.562;8.856;2022-09-09T02:58:44;20.95;;;14.40;;
51020;SDS011;38907;45.562;8.856;2022-09-09T03:03:47;22.13;;;15.65;;
51020;SDS011;38907;45.562;8.856;2022-09-09T03:08:50;24.45;;;17.02;;
51020;SDS011;38907;45.562;8.856;2022-09-09T03:18:56;22.77;;;16.35;;
51020;SDS011;38907;45.562;8.856;2022-09-09T03:23:58;20.52;;;15.20;;
51020;SDS011;38907;45.562;8.856;2022-09-09T03:29:04;20.48;;;15.05;;
51020;SDS011;38907;45.562;8.856;2022-09-09T03:34:07;18.90;;;14.43;;
51020;SDS011;38907;45.562;8.856;2022-09-09T03:39:10;12.75;;;10.55;;
51020;SDS011;38907;45.562;8.856;2022-09-09T03:44:15;11.18;;;6.32;;
51020;SDS011;38907;45.562;8.856;2022-09-09T03:49:18;8.52;;;6.72;;
51020;SDS011;38907;45.562;8.856;2022-09-09T03:54:22;10.70;;;7.45;;
51020;SDS011;38907;45.562;8.856;2022-09-09T04:04:28;10.90;;;7.78;;
51020;SDS011;38907;45.562;8.856;2022-09-09T04:14:34;10.88;;;9.27;;
51020;SDS011;38907;45.562;8.856;2022-09-09T04:19:37;11.77;;;10.45;;
51020;SDS011;38907;45.562;8.856;2022-09-09T04:24:40;11.93;;;10.10;;
51020;SDS011;38907;45.562;8.856;2022-09-09T04:29:44;15.68;;;11.25;;
51020;SDS011;38907;45.562;8.856;2022-09-09T04:34:46;18.98;;;11.65;;
51020;SDS011;38907;45.562;8.856;2022-09-09T04:39:49;15.18;;;13.20;;
51020;SDS011;38907;45.562;8.856;2022-09-09T04:44:53;23.70;;;15.15;;
51020;SDS011;38907;45.562;8.856;2022-09-09T04:49:58;17.17;;;14.50;;
51020;SDS011;38907;45.562;8.856;2022-09-09T04:55:00;22.88;;;15.85;;
51020;SDS011;38907;45.562;8.856;2022-09-09T05:00:05;20.92;;;16.70;;
51020;SDS011;38907;45.562;8.856;2022-09-09T05:05:10;26.80;;;17.38;;
51020;SDS011;38907;45.562;8.856;2022-09-09T05:10:12;23.00;;;18.05;;
51020;SDS011;38907;45.562;8.856;2022-09-09T05:15:18;25.05;;;17.35;;
51020;SDS011;38907;45.562;8.856;2022-09-09T05:20:21;17.20;;;11.25;;
51020;SDS011;38907;45.562;8.856;2022-09-09T05:25:24;11.05;;;9.65;;
51020;SDS011;38907;45.562;8.856;2022-09-09T05:30:28;9.15;;;5.70;;
51020;SDS011;38907;45.562;8.856;2022-09-09T05:35:31;5.65;;;5.03;;
51020;SDS011;38907;45.562;8.856;2022-09-09T05:40:34;7.63;;;4.07;;
51020;SDS011;38907;45.562;8.856;2022-09-09T05:45:38;4.03;;;3.42;;
51020;SDS011;38907;45.562;8.856;2022-09-09T05:50:40;5.15;;;3.00;;
51020;SDS011;38907;45.562;8.856;2022-09-09T05:55:44;6.63;;;3.22;;
51020;SDS011;38907;45.562;8.856;2022-09-09T06:00:49;6.53;;;3.17;;
51020;SDS011;38907;45.562;8.856;2022-09-09T06:05:56;6.43;;;2.90;;
51020;SDS011;38907;45.562;8.856;2022-09-09T06:11:03;6.20;;;3.53;;
51020;SDS011;38907;45.562;8.856;2022-09-09T06:16:09;4.28;;;3.25;;
51020;SDS011;38907;45.562;8.856;2022-09-09T06:21:14;5.28;;;2.75;;
51020;SDS011;38907;45.562;8.856;2022-09-09T06:26:19;4.65;;;2.85;;
51020;SDS011;38907;45.562;8.856;2022-09-09T06:31:26;4.40;;;3.42;;
51020;SDS011;38907;45.562;8.856;2022-09-09T06:36:31;5.78;;;3.00;;
51020;SDS011;38907;45.562;8.856;2022-09-09T06:41:37;4.55;;;1.98;;
51020;SDS011;38907;45.562;8.856;2022-09-09T06:46:41;3.30;;;2.03;;
51020;SDS011;38907;45.562;8.856;2022-09-09T06:51:44;10.07;;;2.03;;
51020;SDS011;38907;45.562;8.856;2022-09-09T06:56:47;4.65;;;1.90;;
51020;SDS011;38907;45.562;8.856;2022-09-09T07:01:51;8.82;;;1.90;;
51020;SDS011;38907;45.562;8.856;2022-09-09T07:06:55;2.72;;;1.55;;
51020;SDS011;38907;45.562;8.856;2022-09-09T07:11:59;3.10;;;1.40;;
51020;SDS011;38907;45.562;8.856;2022-09-09T07:22:05;2.22;;;1.40;;
51020;SDS011;38907;45.562;8.856;2022-09-09T07:27:07;6.78;;;2.22;;
51020;SDS011;38907;45.562;8.856;2022-09-09T07:32:11;3.10;;;2.45;;
51020;SDS011;38907;45.562;8.856;2022-09-09T07:37:14;3.03;;;2.50;;
51020;SDS011;38907;45.562;8.856;2022-09-09T07:42:17;5.00;;;2.30;;
51020;SDS011;38907;45.562;8.856;2022-09-09T07:52:25;4.65;;;2.10;;
51020;SDS011;38907;45.562;8.856;2022-09-09T07:57:28;2.72;;;1.60;;
51020;SDS011;38907;45.562;8.856;2022-09-09T08:02:32;3.83;;;1.48;;
51020;SDS011;38907;45.562;8.856;2022-09-09T08:07:35;4.07;;;1.60;;
51020;SDS011;38907;45.562;8.856;2022-09-09T08:12:37;4.47;;;2.80;;
51020;SDS011;38907;45.562;8.856;2022-09-09T08:27:46;7.28;;;6.05;;
51020;SDS011;38907;45.562;8.856;2022-09-09T08:32:50;9.18;;;7.28;;
51020;SDS011;38907;45.562;8.856;2022-09-09T08:37:53;7.10;;;6.38;;
51020;SDS011;38907;45.562;8.856;2022-09-09T08:42:56;9.07;;;6.35;;
51020;SDS011;38907;45.562;8.856;2022-09-09T08:48:08;7.85;;;5.97;;
51020;SDS011;38907;45.562;8.856;2022-09-09T08:53:26;10.38;;;7.25;;
51020;SDS011;38907;45.562;8.856;2022-09-09T08:58:31;14.25;;;7.00;;
51020;SDS011;38907;45.562;8.856;2022-09-09T09:03:38;11.95;;;7.75;;
51020;SDS011;38907;45.562;8.856;2022-09-09T09:08:51;10.63;;;6.90;;
51020;SDS011;38907;45.562;8.856;2022-09-09T09:19:11;8.80;;;6.93;;
51020;SDS011;38907;45.562;8.856;2022-09-09T09:24:16;11.57;;;6.75;;
51020;SDS011;38907;45.562;8.856;2022-09-09T09:29:23;12.65;;;7.50;;
51020;SDS011;38907;45.562;8.856;2022-09-09T09:34:29;14.98;;;7.43;;
51020;SDS011;38907;45.562;8.856;2022-09-09T09:39:32;9.02;;;5.80;;
51020;SDS011;38907;45.562;8.856;2022-09-09T09:44:38;11.88;;;7.72;;
51020;SDS011;38907;45.562;8.856;2022-09-09T09:49:52;12.95;;;8.63;;
51020;SDS011;38907;45.562;8.856;2022-09-09T09:54:56;11.63;;;7.82;;
51020;SDS011;38907;45.562;8.856;2022-09-09T10:00:00;10.75;;;7.68;;
51020;SDS011;38907;45.562;8.856;2022-09-09T10:05:12;11.52;;;8.25;;
51020;SDS011;38907;45.562;8.856;2022-09-09T10:10:19;13.23;;;9.00;;
51020;SDS011;38907;45.562;8.856;2022-09-09T10:15:30;13.82;;;9.35;;
51020;SDS011;38907;45.562;8.856;2022-09-09T10:20:42;10.77;;;9.07;;
51020;SDS011;38907;45.562;8.856;2022-09-09T10:25:57;9.27;;;8.35;;
51020;SDS011;38907;45.562;8.856;2022-09-09T10:31:11;11.10;;;8.07;;
51020;SDS011;38907;45.562;8.856;2022-09-09T10:36:24;9.00;;;6.50;;
51020;SDS011;38907;45.562;8.856;2022-09-09T10:41:34;8.55;;;5.90;;
51020;SDS011;38907;45.562;8.856;2022-09-09T10:46:58;8.95;;;5.00;;
51020;SDS011;38907;45.562;8.856;2022-09-09T10:52:15;9.07;;;6.18;;
51020;SDS011;38907;45.562;8.856;2022-09-09T10:57:25;7.70;;;4.35;;
51020;SDS011;38907;45.562;8.856;2022-09-09T11:02:33;9.13;;;4.20;;
51020;SDS011;38907;45.562;8.856;2022-09-09T11:07:39;8.15;;;3.25;;
51020;SDS011;38907;45.562;8.856;2022-09-09T11:12:45;4.35;;;2.55;;
51020;SDS011;38907;45.562;8.856;2022-09-09T11:17:52;6.68;;;3.20;;
51020;SDS011;38907;45.562;8.856;2022-09-09T11:23:00;3.70;;;2.45;;
51020;SDS011;38907;45.562;8.856;2022-09-09T11:28:11;5.10;;;2.88;;
51020;SDS011;38907;45.562;8.856;2022-09-09T11:39:02;8.17;;;3.43;;
51020;SDS011;38907;45.562;8.856;2022-09-09T11:44:24;4.43;;;3.05;;
51020;SDS011;38907;45.562;8.856;2022-09-09T11:49:40;8.13;;;2.72;;
51020;SDS011;38907;45.562;8.856;2022-09-09T11:54:49;7.93;;;2.28;;
51020;SDS011;38907;45.562;8.856;2022-09-09T11:59:51;7.72;;;2.20;;
51020;SDS011;38907;45.562;8.856;2022-09-09T12:04:56;5.97;;;2.78;;
51020;SDS011;38907;45.562;8.856;2022-09-09T12:10:05;6.07;;;3.22;;
51020;SDS011;38907;45.562;8.856;2022-09-09T12:15:27;4.65;;;2.63;;
51020;SDS011;38907;45.562;8.856;2022-09-09T12:20:34;4.57;;;2.72;;
51020;SDS011;38907;45.562;8.856;2022-09-09T12:25:44;2.78;;;2.55;;
51020;SDS011;38907;45.562;8.856;2022-09-09T12:31:03;4.85;;;3.05;;
51020;SDS011;38907;45.562;8.856;2022-09-09T12:36:10;4.97;;;3.00;;
51020;SDS011;38907;45.562;8.856;2022-09-09T12:41:21;6.22;;;3.58;;
51020;SDS011;38907;45.562;8.856;2022-09-09T12:46:27;3.22;;;2.42;;
51020;SDS011;38907;45.562;8.856;2022-09-09T12:51:36;6.50;;;2.60;;
51020;SDS011;38907;45.562;8.856;2022-09-09T12:56:44;4.10;;;2.67;;
51020;SDS011;38907;45.562;8.856;2022-09-09T13:01:54;6.25;;;2.33;;
51020;SDS011;38907;45.562;8.856;2022-09-09T13:07:05;6.05;;;2.65;;
51020;SDS011;38907;45.562;8.856;2022-09-09T13:12:13;6.72;;;3.30;;
51020;SDS011;38907;45.562;8.856;2022-09-09T13:17:19;6.95;;;2.90;;
51020;SDS011;38907;45.562;8.856;2022-09-09T13:22:28;3.53;;;2.10;;
51020;SDS011;38907;45.562;8.856;2022-09-09T13:27:35;5.03;;;2.47;;
51020;SDS011;38907;45.562;8.856;2022-09-09T13:32:39;6.30;;;2.20;;
51020;SDS011;38907;45.562;8.856;2022-09-09T13:37:42;6.28;;;2.28;;
51020;SDS011;38907;45.562;8.856;2022-09-09T13:42:47;4.88;;;2.00;;
51020;SDS011;38907;45.562;8.856;2022-09-09T13:47:53;5.32;;;2.08;;
51020;SDS011;38907;45.562;8.856;2022-09-09T13:52:57;3.22;;;1.83;;
51020;SDS011;38907;45.562;8.856;2022-09-09T13:58:02;2.72;;;2.45;;
51020;SDS011;38907;45.562;8.856;2022-09-09T14:03:06;3.83;;;2.17;;
51020;SDS011;38907;45.562;8.856;2022-09-09T14:08:10;3.60;;;1.98;;
51020;SDS011;38907;45.562;8.856;2022-09-09T14:13:23;3.83;;;2.13;;
51020;SDS011;38907;45.562;8.856;2022-09-09T14:18:26;7.10;;;1.90;;
51020;SDS011;38907;45.562;8.856;2022-09-09T14:23:29;3.63;;;1.75;;
51020;SDS011;38907;45.562;8.856;2022-09-09T14:28:34;5.03;;;2.28;;
51020;SDS011;38907;45.562;8.856;2022-09-09T14:33:38;6.88;;;2.20;;
51020;SDS011;38907;45.562;8.856;2022-09-09T14:38:40;5.88;;;3.50;;
51020;SDS011;38907;45.562;8.856;2022-09-09T14:43:45;3.15;;;1.60;;
51020;SDS011;38907;45.562;8.856;2022-09-09T14:48:48;2.92;;;1.90;;
51020;SDS011;38907;45.562;8.856;2022-09-09T14:53:51;4.18;;;1.67;;
51020;SDS011;38907;45.562;8.856;2022-09-09T14:58:56;5.70;;;1.98;;
51020;SDS011;38907;45.562;8.856;2022-09-09T15:04:02;4.25;;;1.77;;
51020;SDS011;38907;45.562;8.856;2022-09-09T15:09:06;2.67;;;1.88;;
51020;SDS011;38907;45.562;8.856;2022-09-09T15:14:11;5.63;;;1.70;;
51020;SDS011;38907;45.562;8.856;2022-09-09T15:19:13;4.03;;;1.75;;
51020;SDS011;38907;45.562;8.856;2022-09-09T15:24:16;3.63;;;1.75;;
51020;SDS011;38907;45.562;8.856;2022-09-09T15:29:20;3.55;;;1.90;;
51020;SDS011;38907;45.562;8.856;2022-09-09T15:34:23;3.70;;;1.58;;
51020;SDS011;38907;45.562;8.856;2022-09-09T15:39:25;3.13;;;1.73;;
51020;SDS011;38907;45.562;8.856;2022-09-09T15:44:31;3.17;;;1.70;;
51020;SDS011;38907;45.562;8.856;2022-09-09T15:49:40;1.80;;;1.58;;
51020;SDS011;38907;45.562;8.856;2022-09-09T15:54:43;3.22;;;1.60;;
51020;SDS011;38907;45.562;8.856;2022-09-09T15:59:47;3.17;;;1.50;;
51020;SDS011;38907;45.562;8.856;2022-09-09T16:04:50;1.70;;;1.30;;
51020;SDS011;38907;45.562;8.856;2022-09-09T16:09:53;8.85;;;2.00;;
51020;SDS011;38907;45.562;8.856;2022-09-09T16:14:57;2.03;;;1.33;;
51020;SDS011;38907;45.562;8.856;2022-09-09T16:19:59;11.77;;;3.05;;
51020;SDS011;38907;45.562;8.856;2022-09-09T16:25:03;5.18;;;1.98;;
51020;SDS011;38907;45.562;8.856;2022-09-09T16:30:08;7.45;;;1.52;;
51020;SDS011;38907;45.562;8.856;2022-09-09T16:35:11;1.80;;;1.70;;
51020;SDS011;38907;45.562;8.856;2022-09-09T16:40:14;6.75;;;1.75;;
51020;SDS011;38907;45.562;8.856;2022-09-09T16:45:19;3.42;;;1.70;;
51020;SDS011;38907;45.562;8.856;2022-09-09T16:50:22;2.85;;;1.60;;
51020;SDS011;38907;45.562;8.856;2022-09-09T16:55:25;2.17;;;1.70;;
51020;SDS011;38907;45.562;8.856;2022-09-09T17:00:29;3.15;;;1.58;;
51020;SDS011;38907;45.562;8.856;2022-09-09T17:05:31;5.07;;;1.77;;
51020;SDS011;38907;45.562;8.856;2022-09-09T17:15:43;2.90;;;1.58;;
51020;SDS011;38907;45.562;8.856;2022-09-09T17:20:46;4.20;;;1.60;;
51020;SDS011;38907;45.562;8.856;2022-09-09T17:25:55;5.38;;;1.70;;
51020;SDS011;38907;45.562;8.856;2022-09-09T17:30:59;6.35;;;1.85;;
51020;SDS011;38907;45.562;8.856;2022-09-09T17:36:06;1.55;;;1.45;;
51020;SDS011;38907;45.562;8.856;2022-09-09T17:41:11;4.68;;;1.75;;
51020;SDS011;38907;45.562;8.856;2022-09-09T17:46:18;4.78;;;1.85;;
51020;SDS011;38907;45.562;8.856;2022-09-09T17:51:22;2.80;;;1.60;;
51020;SDS011;38907;45.562;8.856;2022-09-09T17:56:28;3.78;;;1.50;;
51020;SDS011;38907;45.562;8.856;2022-09-09T18:01:34;3.03;;;2.33;;
51020;SDS011;38907;45.562;8.856;2022-09-09T18:06:39;2.97;;;2.17;;
51020;SDS011;38907;45.562;8.856;2022-09-09T18:11:43;3.22;;;2.05;;
51020;SDS011;38907;45.562;8.856;2022-09-09T18:16:48;6.97;;;2.40;;
51020;SDS011;38907;45.562;8.856;2022-09-09T18:21:51;5.80;;;2.10;;
51020;SDS011;38907;45.562;8.856;2022-09-09T18:26:54;5.57;;;2.05;;
51020;SDS011;38907;45.562;8.856;2022-09-09T18:31:58;2.28;;;1.90;;
51020;SDS011;38907;45.562;8.856;2022-09-09T18:37:01;4.95;;;2.25;;
51020;SDS011;38907;45.562;8.856;2022-09-09T18:42:04;2.97;;;1.90;;
51020;SDS011;38907;45.562;8.856;2022-09-09T18:47:08;4.70;;;2.00;;
51020;SDS011;38907;45.562;8.856;2022-09-09T18:52:11;3.97;;;1.55;;
51020;SDS011;38907;45.562;8.856;2022-09-09T18:57:14;3.00;;;1.70;;
51020;SDS011;38907;45.562;8.856;2022-09-09T19:02:19;5.40;;;2.35;;
51020;SDS011;38907;45.562;8.856;2022-09-09T19:07:22;7.65;;;1.80;;
51020;SDS011;38907;45.562;8.856;2022-09-09T19:12:24;2.20;;;1.80;;
51020;SDS011;38907;45.562;8.856;2022-09-09T19:17:31;3.25;;;1.77;;
51020;SDS011;38907;45.562;8.856;2022-09-09T19:22:35;2.33;;;1.92;;
51020;SDS011;38907;45.562;8.856;2022-09-09T19:27:37;2.63;;;1.90;;
51020;SDS011;38907;45.562;8.856;2022-09-09T19:42:46;3.63;;;2.40;;
51020;SDS011;38907;45.562;8.856;2022-09-09T19:47:52;3.50;;;2.20;;
51020;SDS011;38907;45.562;8.856;2022-09-09T19:52:55;7.15;;;3.03;;
51020;SDS011;38907;45.562;8.856;2022-09-09T19:57:59;7.50;;;3.33;;
51020;SDS011;38907;45.562;8.856;2022-09-09T20:03:04;4.88;;;3.60;;
51020;SDS011;38907;45.562;8.856;2022-09-09T20:08:08;6.90;;;3.50;;
51020;SDS011;38907;45.562;8.856;2022-09-09T20:18:13;4.93;;;3.40;;
51020;SDS011;38907;45.562;8.856;2022-09-09T20:23:16;5.93;;;3.65;;
51020;SDS011;38907;45.562;8.856;2022-09-09T20:33:22;4.70;;;3.58;;
51020;SDS011;38907;45.562;8.856;2022-09-09T20:38:25;5.70;;;3.97;;
51020;SDS011;38907;45.562;8.856;2022-09-09T20:48:33;8.77;;;5.25;;
51020;SDS011;38907;45.562;8.856;2022-09-09T20:53:35;7.57;;;5.18;;
51020;SDS011;38907;45.562;8.856;2022-09-09T20:58:38;7.68;;;5.35;;
51020;SDS011;38907;45.562;8.856;2022-09-09T21:08:45;8.23;;;6.05;;
51020;SDS011;38907;45.562;8.856;2022-09-09T21:13:48;12.55;;;6.40;;
51020;SDS011;38907;45.562;8.856;2022-09-09T21:18:53;13.60;;;6.75;;
51020;SDS011;38907;45.562;8.856;2022-09-09T21:23:56;10.95;;;7.40;;
51020;SDS011;38907;45.562;8.856;2022-09-09T21:28:59;13.68;;;8.02;;
51020;SDS011;38907;45.562;8.856;2022-09-09T21:44:08;10.68;;;5.85;;
